Alton, Illinois
Current Conditions -  °F | °C
As of 6:50 PM on Monday 26 Jan 2015 (Local Time) from KALN Reporting Station
Overcast Overcast  
Wind Chill: -2°   Ceiling: 3800
Heat Index:   Visibility: 10mi
Dew Point: -1°   Wind: 6mph
Humidity: 87%   Direction: 150°SSE
Pressure: 29.92"   Gusts: NA
Location:  38.89°N, 90.18°W
Report Text: KALN 270050Z 15005KT 10SM OVC038 01/M01 A2992
Loading
Personal Weather Stations






























Interactive Weather Map New forecast layout! Learn more

10-Day Weather Forecast

Advertisements
Track Severe Weather on mobile